Aérodrome :
LOGIN :

S'inscrire | Disclaimer

   EN    FR    IT 

 










Légende :    VFR   VFR Marginal   IFR   IFR Intensif   IFR Très Intensif
Visi : 
Plafond : 
>= 8 km
>= 3000ft
5 à 8 km
1000 à 3000 ft
1500m à 5 km
500 à 1000 ft
800 à 1500m
200 à 500 ft
< 800m
< 200 ft
Symboles :   Orages  Brouillard  Fortes neiges  Fortes précipitations  Vent > 20 kt
SIGMETs :   Divers  Orages  Givrage  Turbulence  Onde Orograph.  Cendres Volcan.







- Altitude de l'aérodrome : 412 ft
- Code IATA : ORE
- Voir les cartes d'approche


LFOJ - Orleans

DERNIER METAR :
  • 270400Z AUTO 21004KT CAVOK 18/16 Q1014

METARs EXPIRÉS :
  • 270330Z AUTO 19005KT CAVOK 19/16 Q1013
  • 270300Z AUTO 19006KT CAVOK 19/16 Q1014
  • 270230Z AUTO 17007KT CAVOK 19/15 Q1014
  • 270200Z AUTO 16008KT CAVOK 20/16 Q1013
  • 270130Z AUTO 16006KT CAVOK 19/15 Q1013

TAF AMD TAF LFOJ
Valide du 26 à 21h jusqu'au 27 à 21h UTC


262100Z 2621/2721 10005KT CAVOK
BECMG 2706/2709 18010KT
Pas de NOTAMs connus pour ce terrain.



MET'MAP, la Météo Aéronautique d'un coup d'oeil ! - Copyright ORBIFLY Décembre 2007 - Disclaimer

ORBIFLY MET'MAP TEAM :

Programmation & Développement : Alexandra Zaïnal
Conception & Développement : Baudouin d'Aumeries
Co-Programmation & Développement : Marc-Olivier Méhu
Soutien technique & logistique : Manuel Goepfert

Contact : metmap@orbifly.com




SOURCES & CREDITS :

   NOAA